createdAt,value
2019-05-18T00:00:49.983Z,7.7
2019-05-18T00:02:50.137Z,7.7
2019-05-18T00:04:49.490Z,7.7
2019-05-18T00:06:49.635Z,7.8
2019-05-18T00:08:49.730Z,7.5
2019-05-18T00:10:49.753Z,7.2
2019-05-18T00:12:49.755Z,7.2
2019-05-18T00:14:49.765Z,7.8
2019-05-18T00:16:49.972Z,7.7
2019-05-18T00:18:49.944Z,8.1
2019-05-18T00:20:49.934Z,8.1
2019-05-18T00:22:50.071Z,7.5
2019-05-18T00:24:50.040Z,7.1
2019-05-18T00:26:50.310Z,7.5
2019-05-18T00:28:50.376Z,7.5
2019-05-18T00:30:50.402Z,7.5
2019-05-18T00:32:49.512Z,7.3
2019-05-18T00:34:49.826Z,7.2
2019-05-18T00:36:50.079Z,7.6
2019-05-18T00:38:50.155Z,8.0
2019-05-18T00:40:50.241Z,8.0
2019-05-18T00:42:50.290Z,8.1
2019-05-18T00:44:50.259Z,8.4
2019-05-18T00:46:49.693Z,8.4
2019-05-18T00:48:49.684Z,8.6
2019-05-18T00:50:49.702Z,8.6
2019-05-18T00:52:49.804Z,8.1
2019-05-18T00:54:49.895Z,8.8
2019-05-18T00:56:50.216Z,8.5
2019-05-18T00:58:50.234Z,8.5
2019-05-18T01:00:50.339Z,9.2
2019-05-18T01:02:49.497Z,8.8
2019-05-18T01:04:49.959Z,8.5
2019-05-18T01:06:50.068Z,8.5
2019-05-18T01:08:50.223Z,8.9
2019-05-18T01:10:50.245Z,8.9
2019-05-18T01:12:50.234Z,9.0
2019-05-18T01:14:50.316Z,10.7
2019-05-18T01:16:49.539Z,10.0
2019-05-18T01:18:49.574Z,10.0
2019-05-18T01:20:49.742Z,10.0
2019-05-18T01:22:49.944Z,9.5
2019-05-18T01:24:50.078Z,9.7
2019-05-18T01:26:50.226Z,9.7
2019-05-18T01:28:50.380Z,10.5
2019-05-18T01:30:50.429Z,10.5
2019-05-18T01:32:49.511Z,10.1
2019-05-18T01:34:50.046Z,11.4
2019-05-18T01:36:50.182Z,10.6
2019-05-18T01:38:50.292Z,10.6
2019-05-18T01:40:50.395Z,11.4
2019-05-18T01:42:50.375Z,11.4
2019-05-18T01:44:49.480Z,11.3
2019-05-18T01:46:49.608Z,12.1
2019-05-18T01:48:49.648Z,12.1
2019-05-18T01:50:49.646Z,11.5
2019-05-18T01:52:49.719Z,11.5
2019-05-18T01:54:49.858Z,11.5
2019-05-18T01:56:50.059Z,11.9
2019-05-18T01:58:50.115Z,11.9
2019-05-18T02:00:50.207Z,11.3
2019-05-18T02:02:50.245Z,12.6
2019-05-18T02:04:49.737Z,12.6
2019-05-18T02:06:49.942Z,11.9
2019-05-18T02:08:50.313Z,11.9
2019-05-18T02:10:50.354Z,11.6
2019-05-18T02:12:50.339Z,12.4
2019-05-18T02:14:50.279Z,12.2
2019-05-18T02:16:50.352Z,12.2
2019-05-18T02:18:50.353Z,12.0
2019-05-18T02:20:50.338Z,11.7
2019-05-18T02:22:49.451Z,11.9
2019-05-18T02:24:49.514Z,12.2
2019-05-18T02:26:49.654Z,12.2
2019-05-18T02:28:49.610Z,12.6
2019-05-18T02:30:49.514Z,12.4
2019-05-18T02:32:49.705Z,12.4
2019-05-18T02:34:50.247Z,11.4
2019-05-18T02:36:49.683Z,11.4
2019-05-18T02:38:49.741Z,12.4
2019-05-18T02:40:49.901Z,11.8
2019-05-18T02:42:49.928Z,11.8
2019-05-18T02:44:50.015Z,11.9
2019-05-18T02:46:50.193Z,11.9
2019-05-18T02:48:50.724Z,12.3
2019-05-18T02:50:50.101Z,10.9
2019-05-18T02:52:50.125Z,10.9
2019-05-18T02:54:50.224Z,10.9
2019-05-18T02:56:49.456Z,10.9
2019-05-18T02:58:50.442Z,10.6
2019-05-18T03:00:49.501Z,11.3
2019-05-18T03:02:49.514Z,10.9
2019-05-18T03:04:49.997Z,11.2
2019-05-18T03:06:50.179Z,11.2
2019-05-18T03:08:50.247Z,11.8
2019-05-18T03:10:50.389Z,11.9
2019-05-18T03:12:50.363Z,10.9
2019-05-18T03:14:49.452Z,10.9
2019-05-18T03:16:49.790Z,11.8
2019-05-18T03:19:06.666Z,11.6
2019-05-18T03:20:50.099Z,11.0
2019-05-18T03:22:50.189Z,11.0
2019-05-18T03:24:50.294Z,10.5
2019-05-18T03:26:49.539Z,10.5
2019-05-18T03:28:49.636Z,10.9
2019-05-18T03:30:49.678Z,10.6
2019-05-18T03:32:49.756Z,11.0
2019-05-18T03:34:50.451Z,11.0
2019-05-18T03:36:49.789Z,10.4
2019-05-18T03:38:49.833Z,10.4
2019-05-18T03:40:49.909Z,10.8
2019-05-18T03:42:49.950Z,10.8
2019-05-18T03:44:50.053Z,10.1
2019-05-18T03:46:50.260Z,10.9
2019-05-18T03:48:50.340Z,10.5
2019-05-18T03:50:49.456Z,10.5
2019-05-18T03:52:50.434Z,10.5
2019-05-18T03:54:49.522Z,11.0
2019-05-18T03:56:49.691Z,11.5
2019-05-18T03:58:49.733Z,11.5
2019-05-18T04:00:49.765Z,11.6
2019-05-18T04:02:49.859Z,11.6
2019-05-18T04:04:50.226Z,12.6
2019-05-18T04:06:50.363Z,12.5
2019-05-18T04:08:50.393Z,12.2
2019-05-18T04:10:49.533Z,13.1
2019-05-18T04:12:49.534Z,13.1
2019-05-18T04:14:49.646Z,12.4
2019-05-18T04:16:49.881Z,12.0
2019-05-18T04:18:49.989Z,12.0
2019-05-18T04:20:50.120Z,12.4
2019-05-18T04:22:50.179Z,12.0
2019-05-18T04:24:50.300Z,11.8
2019-05-18T04:26:50.081Z,11.3
2019-05-18T04:28:50.144Z,11.3
2019-05-18T04:30:50.266Z,10.6
2019-05-18T04:32:50.367Z,10.6
2019-05-18T04:34:49.867Z,10.6
2019-05-18T04:36:50.031Z,9.9
2019-05-18T04:38:50.073Z,9.8
2019-05-18T04:40:50.212Z,9.8
2019-05-18T04:42:50.261Z,9.9
2019-05-18T04:44:50.361Z,9.7
2019-05-18T04:46:49.766Z,10.0
2019-05-18T04:48:49.899Z,8.8
2019-05-18T04:50:50.042Z,8.8
2019-05-18T04:52:50.196Z,10.2
2019-05-18T04:54:50.288Z,10.1
2019-05-18T04:56:49.479Z,10.1
2019-05-18T04:58:49.586Z,9.8
2019-05-18T05:00:49.709Z,9.8
2019-05-18T05:02:49.772Z,9.1
2019-05-18T05:04:52.783Z,9.5
2019-05-18T05:06:50.042Z,8.7
2019-05-18T05:08:50.152Z,9.0
2019-05-18T05:10:50.198Z,9.0
2019-05-18T05:12:50.331Z,8.7
2019-05-18T05:14:50.432Z,8.6
2019-05-18T05:16:49.657Z,9.2
2019-05-18T05:18:49.698Z,9.2
2019-05-18T05:20:49.710Z,8.8
2019-05-18T05:22:49.788Z,8.9
2019-05-18T05:24:49.867Z,8.6
2019-05-18T05:26:50.016Z,8.3
2019-05-18T05:28:50.243Z,8.3
2019-05-18T05:30:50.244Z,8.7
2019-05-18T05:32:50.342Z,8.6
2019-05-18T05:34:49.628Z,7.6
2019-05-18T05:36:50.473Z,7.1
2019-05-18T05:38:50.406Z,7.1
2019-05-18T05:40:50.445Z,7.2
2019-05-18T05:42:49.543Z,6.6
2019-05-18T05:44:49.602Z,7.6
2019-05-18T05:46:49.898Z,7.4
2019-05-18T05:48:49.896Z,7.4
2019-05-18T05:50:49.924Z,7.4
2019-05-18T05:52:50.011Z,7.1
2019-05-18T05:54:49.990Z,7.3
2019-05-18T05:56:50.069Z,7.3
2019-05-18T05:58:50.067Z,6.7
2019-05-18T06:00:50.101Z,6.7
2019-05-18T06:02:50.197Z,6.3
2019-05-18T06:04:49.634Z,6.6
2019-05-18T06:06:49.823Z,6.6
2019-05-18T06:08:49.837Z,6.2
2019-05-18T06:10:49.883Z,8.0
2019-05-18T06:12:49.935Z,6.5
2019-05-18T06:14:49.931Z,6.5
2019-05-18T06:16:50.137Z,6.3
2019-05-18T06:18:50.177Z,5.7
2019-05-18T06:20:51.255Z,5.6
2019-05-18T06:22:50.161Z,7.1
2019-05-18T06:24:50.156Z,5.6
2019-05-18T06:26:50.278Z,5.6
2019-05-18T06:28:50.329Z,5.2
2019-05-18T06:30:50.379Z,5.3
2019-05-18T06:32:50.353Z,5.6
2019-05-18T06:34:49.629Z,4.9
2019-05-18T06:36:49.849Z,4.9
2019-05-18T06:38:49.885Z,5.6
2019-05-18T06:40:49.990Z,5.2
2019-05-18T06:42:50.123Z,5.5
2019-05-18T06:44:50.164Z,5.5
2019-05-18T06:46:50.395Z,5.0
2019-05-18T06:48:50.402Z,5.5
2019-05-18T06:50:49.534Z,5.2
2019-05-18T06:52:49.487Z,5.2
2019-05-18T06:54:49.554Z,5.2
2019-05-18T06:56:49.796Z,5.5
2019-05-18T06:58:49.863Z,4.8
2019-05-18T07:00:49.918Z,4.8
2019-05-18T07:02:49.941Z,4.8
2019-05-18T07:04:50.360Z,4.9
2019-05-18T07:06:50.424Z,4.9
2019-05-18T07:08:49.493Z,5.1
2019-05-18T07:10:49.471Z,4.9
2019-05-18T07:12:49.492Z,4.3
2019-05-18T07:14:49.558Z,4.8
2019-05-18T07:16:49.842Z,4.8
2019-05-18T07:18:50.034Z,4.4
2019-05-18T07:20:50.055Z,4.4
2019-05-18T07:22:50.197Z,4.2
2019-05-18T07:24:50.276Z,4.2
2019-05-18T07:26:50.346Z,3.8
2019-05-18T07:28:49.488Z,4.0
2019-05-18T07:30:49.511Z,4.0
2019-05-18T07:32:49.475Z,3.8
2019-05-18T07:34:49.965Z,3.8
2019-05-18T07:36:50.122Z,3.9
2019-05-18T07:38:50.229Z,4.2
2019-05-18T07:40:50.290Z,4.1
2019-05-18T07:42:49.561Z,4.3
2019-05-18T07:44:49.672Z,4.3
2019-05-18T07:46:49.778Z,4.2
2019-05-18T07:48:49.923Z,4.0
2019-05-18T07:50:49.998Z,3.9
2019-05-18T07:52:50.054Z,3.7
2019-05-18T07:54:50.124Z,3.7
2019-05-18T07:56:50.352Z,4.0
2019-05-18T07:58:49.449Z,3.8
2019-05-18T08:00:49.498Z,4.1
2019-05-18T08:02:49.620Z,4.0
2019-05-18T08:04:49.965Z,4.0
2019-05-18T08:06:50.161Z,3.5
2019-05-18T08:08:50.234Z,3.7
2019-05-18T08:10:50.385Z,3.6
2019-05-18T08:12:49.473Z,3.6
2019-05-18T08:14:49.459Z,3.9
2019-05-18T08:16:49.690Z,3.6
2019-05-18T08:18:49.724Z,4.8
2019-05-18T08:20:49.725Z,4.8
2019-05-18T08:22:49.763Z,4.6
2019-05-18T08:24:49.743Z,4.4
2019-05-18T08:26:49.987Z,3.7
2019-05-18T08:28:50.003Z,3.4
2019-05-18T08:30:50.072Z,3.4
2019-05-18T08:32:50.231Z,3.5
2019-05-18T08:34:49.685Z,3.9
2019-05-18T08:36:49.837Z,4.0
2019-05-18T08:38:49.803Z,4.0
2019-05-18T08:40:49.981Z,4.1
2019-05-18T08:42:50.102Z,3.9
2019-05-18T08:44:50.291Z,3.9
2019-05-18T08:46:49.604Z,3.9
2019-05-18T08:48:49.620Z,3.6
2019-05-18T08:50:49.688Z,3.4
2019-05-18T08:52:49.730Z,3.4
2019-05-18T08:54:49.784Z,3.4
2019-05-18T08:56:49.979Z,3.8
2019-05-18T08:58:50.057Z,3.8
2019-05-18T09:00:50.223Z,3.4
2019-05-18T09:02:50.273Z,3.2
2019-05-18T09:04:49.745Z,3.0
2019-05-18T09:06:49.896Z,3.3
2019-05-18T09:08:49.831Z,3.3
2019-05-18T09:10:49.914Z,2.9
2019-05-18T09:12:49.913Z,4.0
2019-05-18T09:14:49.963Z,2.7
2019-05-18T09:16:50.195Z,3.5
2019-05-18T09:18:50.227Z,2.7
2019-05-18T09:20:50.215Z,2.7
2019-05-18T09:22:50.247Z,2.9
2019-05-18T09:24:50.268Z,2.8
2019-05-18T09:26:49.513Z,2.8
2019-05-18T09:28:49.511Z,3.6
2019-05-18T09:30:49.612Z,3.6
2019-05-18T09:32:49.809Z,2.6
2019-05-18T09:34:50.249Z,2.3
2019-05-18T09:36:49.526Z,2.5
2019-05-18T09:38:49.526Z,2.5
2019-05-18T09:40:49.613Z,3.1
2019-05-18T09:42:49.639Z,3.0
2019-05-18T09:44:49.787Z,3.3
2019-05-18T09:46:49.965Z,3.3
2019-05-18T09:48:50.093Z,3.0
2019-05-18T09:50:50.101Z,2.8
2019-05-18T09:52:50.125Z,2.6
2019-05-18T09:54:50.125Z,3.0
2019-05-18T09:56:50.306Z,3.0
2019-05-18T09:58:50.389Z,3.0
2019-05-18T10:00:50.425Z,2.9
2019-05-18T10:02:50.409Z,3.1
2019-05-18T10:04:49.827Z,2.8
2019-05-18T10:06:50.194Z,3.1
2019-05-18T10:08:50.191Z,3.1
2019-05-18T10:10:50.220Z,2.7
2019-05-18T10:12:50.220Z,2.9
2019-05-18T10:14:50.206Z,3.3
2019-05-18T10:16:50.327Z,3.3
2019-05-18T10:18:49.487Z,2.7
2019-05-18T10:20:50.454Z,3.0
2019-05-18T10:22:55.788Z,2.9
2019-05-18T10:24:49.681Z,2.8
2019-05-18T10:26:49.823Z,2.8
2019-05-18T10:28:49.897Z,2.8
2019-05-18T10:30:49.930Z,2.6
2019-05-18T10:32:49.984Z,2.7
2019-05-18T10:34:50.308Z,2.7
2019-05-18T10:36:50.426Z,2.7
2019-05-18T10:38:49.459Z,2.7
2019-05-18T10:40:49.658Z,2.6
2019-05-18T10:42:49.709Z,2.3
2019-05-18T10:44:49.818Z,2.7
2019-05-18T10:46:49.918Z,2.7
2019-05-18T10:48:49.945Z,2.5
2019-05-18T10:50:49.920Z,2.1
2019-05-18T10:52:50.033Z,2.2
2019-05-18T10:54:50.158Z,2.2
2019-05-18T10:56:50.306Z,2.2
2019-05-18T10:58:50.396Z,2.3
2019-05-18T11:00:50.418Z,3.5
2019-05-18T11:02:50.468Z,2.1
2019-05-18T11:04:50.085Z,2.1
2019-05-18T11:06:50.265Z,2.0
2019-05-18T11:08:50.299Z,1.9
2019-05-18T11:10:50.352Z,1.9
2019-05-18T11:12:50.360Z,2.9
2019-05-18T11:14:50.403Z,2.9
2019-05-18T11:16:49.604Z,2.8
2019-05-18T11:18:49.662Z,2.2
2019-05-18T11:20:49.794Z,2.2
2019-05-18T11:22:49.816Z,2.4
2019-05-18T11:24:49.743Z,2.1
2019-05-18T11:26:49.930Z,2.1
2019-05-18T11:28:49.984Z,3.0
2019-05-18T11:30:50.082Z,3.0
2019-05-18T11:32:50.124Z,2.1
2019-05-18T11:34:49.536Z,2.1
2019-05-18T11:36:49.691Z,2.1
2019-05-18T11:38:49.696Z,2.4
2019-05-18T11:40:49.757Z,2.4
2019-05-18T11:42:49.846Z,2.0
2019-05-18T11:44:49.816Z,1.8
2019-05-18T11:46:50.076Z,2.0
2019-05-18T11:48:50.078Z,1.9
2019-05-18T11:50:50.114Z,1.9
2019-05-18T11:52:50.219Z,2.1
2019-05-18T11:54:50.230Z,2.1
2019-05-18T11:56:50.440Z,2.0
2019-05-18T11:58:49.840Z,2.1
2019-05-18T12:00:49.798Z,2.1
2019-05-18T12:02:49.891Z,2.1
2019-05-18T12:04:50.207Z,2.0
2019-05-18T12:06:49.486Z,2.2
2019-05-18T12:08:49.543Z,2.0
2019-05-18T12:10:49.536Z,2.0
2019-05-18T12:12:49.633Z,1.8
2019-05-18T12:14:49.642Z,1.8
2019-05-18T12:16:49.923Z,1.9
2019-05-18T12:18:49.981Z,1.9
2019-05-18T12:20:50.124Z,2.1
2019-05-18T12:22:50.161Z,2.1
2019-05-18T12:24:50.291Z,1.7
2019-05-18T12:26:49.575Z,2.1
2019-05-18T12:28:49.631Z,1.6
2019-05-18T12:30:49.963Z,1.6
2019-05-18T12:32:50.145Z,1.8
2019-05-18T12:34:49.542Z,1.9
2019-05-18T12:36:49.609Z,2.3
2019-05-18T12:38:49.643Z,1.8
2019-05-18T12:40:49.624Z,1.7
2019-05-18T12:42:49.623Z,1.7
2019-05-18T12:44:49.762Z,1.7
2019-05-18T12:46:49.982Z,1.8
2019-05-18T12:48:49.648Z,2.2
2019-05-18T12:50:49.556Z,2.2
2019-05-18T12:52:49.611Z,1.9
2019-05-18T12:54:49.528Z,1.8
2019-05-18T12:56:49.768Z,1.8
2019-05-18T12:58:49.881Z,1.7
2019-05-18T13:00:49.876Z,1.7
2019-05-18T13:02:49.850Z,1.7
2019-05-18T13:04:50.191Z,1.9
2019-05-18T13:06:50.328Z,2.0
2019-05-18T13:08:50.412Z,1.8
2019-05-18T13:10:49.543Z,9.1
2019-05-18T13:12:49.511Z,9.1
2019-05-18T13:14:49.530Z,1.8
2019-05-18T13:16:49.702Z,1.9
2019-05-18T13:18:49.696Z,1.9
2019-05-18T13:20:49.760Z,2.9
2019-05-18T13:22:49.823Z,1.8
2019-05-18T13:24:52.112Z,1.7
2019-05-18T13:26:49.469Z,1.7
2019-05-18T13:28:49.479Z,2.0
2019-05-18T13:30:49.512Z,2.0
2019-05-18T13:32:49.512Z,1.9
2019-05-18T13:34:49.946Z,2.0
2019-05-18T13:36:50.023Z,2.8
2019-05-18T13:38:50.108Z,2.8
2019-05-18T13:40:50.062Z,1.9
2019-05-18T13:42:50.194Z,2.0
2019-05-18T13:44:50.307Z,1.9
2019-05-18T13:46:50.397Z,1.9
2019-05-18T13:48:49.595Z,1.9
2019-05-18T13:50:49.537Z,2.3
2019-05-18T13:52:49.626Z,4.6
2019-05-18T13:55:02.616Z,2.0
2019-05-18T13:56:49.762Z,1.8
2019-05-18T13:58:49.747Z,1.8
2019-05-18T14:00:49.801Z,2.1
2019-05-18T14:02:49.840Z,2.2
2019-05-18T14:04:50.264Z,3.5
2019-05-18T14:06:49.501Z,2.1
2019-05-18T14:08:49.637Z,2.1
2019-05-18T14:10:49.746Z,2.0
2019-05-18T14:12:49.848Z,1.7
2019-05-18T14:14:49.954Z,1.7
2019-05-18T14:16:50.129Z,1.9
2019-05-18T14:18:50.171Z,1.9
2019-05-18T14:20:50.252Z,1.8
2019-05-18T14:22:50.315Z,1.9
2019-05-18T14:24:50.415Z,2.0
2019-05-18T14:26:49.652Z,2.0
2019-05-18T14:28:49.630Z,2.5
2019-05-18T14:30:49.689Z,2.1
2019-05-18T14:32:49.709Z,2.9
2019-05-18T14:34:50.199Z,2.0
2019-05-18T14:36:50.377Z,2.1
2019-05-18T14:38:49.596Z,2.1
2019-05-18T14:40:49.707Z,1.8
2019-05-18T14:42:49.746Z,2.0
2019-05-18T14:44:49.817Z,1.9
2019-05-18T14:46:50.001Z,1.9
2019-05-18T14:48:50.133Z,2.2
2019-05-18T14:50:50.185Z,2.0
2019-05-18T14:52:50.306Z,2.4
2019-05-18T14:54:49.433Z,2.2
2019-05-18T14:56:49.551Z,2.2
2019-05-18T14:58:49.646Z,2.3
2019-05-18T15:00:49.679Z,2.3
2019-05-18T15:02:49.756Z,2.0
2019-05-18T15:04:53.029Z,2.3
2019-05-18T15:06:50.155Z,2.3
2019-05-18T15:08:50.331Z,2.2
2019-05-18T15:10:50.431Z,2.4
2019-05-18T15:12:49.486Z,1.7
2019-05-18T15:14:49.468Z,1.7
2019-05-18T15:16:52.765Z,2.9
2019-05-18T15:18:50.239Z,2.2
2019-05-18T15:20:50.311Z,2.2
2019-05-18T15:22:50.377Z,4.0
2019-05-18T15:24:49.515Z,2.1
2019-05-18T15:26:49.908Z,2.1
2019-05-18T15:28:49.863Z,1.8
2019-05-18T15:30:49.814Z,1.8
2019-05-18T15:32:49.890Z,2.6
2019-05-18T15:34:50.177Z,1.6
2019-05-18T15:36:50.425Z,1.6
2019-05-18T15:38:50.433Z,1.5
2019-05-18T15:40:49.449Z,1.5
2019-05-18T15:42:49.654Z,1.6
2019-05-18T15:44:49.679Z,1.6
2019-05-18T15:46:49.760Z,1.8
2019-05-18T15:48:49.846Z,3.2
2019-05-18T15:50:50.035Z,1.9
2019-05-18T15:52:50.073Z,1.9
2019-05-18T15:54:50.098Z,1.8
2019-05-18T15:56:49.526Z,1.6
2019-05-18T15:58:49.518Z,1.5
2019-05-18T16:00:49.637Z,1.5
2019-05-18T16:02:49.737Z,1.5
2019-05-18T16:04:50.258Z,1.5
2019-05-18T16:06:50.354Z,1.4
2019-05-18T16:08:50.383Z,1.4
2019-05-18T16:10:50.423Z,1.3
2019-05-18T16:12:50.381Z,1.3
2019-05-18T16:14:49.452Z,1.7
2019-05-18T16:16:54.060Z,1.7
2019-05-18T16:18:50.236Z,1.5
2019-05-18T16:20:50.268Z,1.5
2019-05-18T16:22:50.230Z,1.5
2019-05-18T16:24:50.330Z,1.7
2019-05-18T16:26:49.518Z,1.8
2019-05-18T16:28:49.542Z,1.8
2019-05-18T16:30:49.607Z,1.7
2019-05-18T16:32:49.778Z,1.7
2019-05-18T16:34:50.186Z,2.2
2019-05-18T16:36:50.377Z,1.9
2019-05-18T16:38:49.464Z,1.8
2019-05-18T16:40:49.457Z,1.7
2019-05-18T16:42:49.623Z,1.7
2019-05-18T16:44:49.714Z,1.6
2019-05-18T16:46:49.815Z,1.5
2019-05-18T16:48:49.885Z,2.0
2019-05-18T16:50:49.956Z,2.0
2019-05-18T16:52:50.008Z,1.7
2019-05-18T16:54:50.122Z,1.9
2019-05-18T16:56:50.405Z,2.1
2019-05-18T16:58:49.443Z,1.7
2019-05-18T17:00:49.431Z,1.9
2019-05-18T17:02:49.594Z,1.9
2019-05-18T17:04:49.981Z,2.9
2019-05-18T17:06:50.284Z,6.1
2019-05-18T17:08:50.328Z,1.8
2019-05-18T17:10:49.461Z,1.8
2019-05-18T17:12:49.501Z,2.4
2019-05-18T17:14:49.558Z,1.8
2019-05-18T17:16:49.841Z,2.1
2019-05-18T17:18:49.902Z,2.1
2019-05-18T17:20:49.978Z,2.1
2019-05-18T17:22:50.050Z,2.2
2019-05-18T17:24:50.131Z,2.0
2019-05-18T17:26:53.081Z,2.0
2019-05-18T17:28:49.737Z,2.3
2019-05-18T17:30:49.849Z,2.3
2019-05-18T17:32:49.908Z,2.1
2019-05-18T17:34:50.330Z,2.0
2019-05-18T17:36:52.438Z,1.9
2019-05-18T17:38:49.814Z,2.3
2019-05-18T17:40:49.815Z,2.3
2019-05-18T17:42:50.116Z,1.9
2019-05-18T17:44:50.136Z,2.1
2019-05-18T17:46:50.413Z,2.0
2019-05-18T17:48:49.536Z,2.0
2019-05-18T17:50:49.586Z,2.8
2019-05-18T17:52:49.686Z,3.8
2019-05-18T17:54:49.697Z,2.2
2019-05-18T17:56:49.786Z,5.2
2019-05-18T17:58:49.907Z,2.0
2019-05-18T18:00:49.959Z,2.0
2019-05-18T18:02:50.125Z,2.4
2019-05-18T18:04:49.507Z,4.2
2019-05-18T18:06:49.743Z,9.5
2019-05-18T18:08:49.740Z,2.6
2019-05-18T18:10:49.733Z,2.6
2019-05-18T18:12:49.837Z,2.3
2019-05-18T18:14:49.890Z,2.1
2019-05-18T18:16:50.017Z,2.8
2019-05-18T18:18:50.051Z,2.8
2019-05-18T18:20:50.178Z,3.5
2019-05-18T18:22:50.178Z,2.5
2019-05-18T18:24:50.206Z,2.5
2019-05-18T18:26:49.493Z,2.6
2019-05-18T18:28:49.501Z,2.6
2019-05-18T18:30:49.611Z,2.4
2019-05-18T18:32:49.702Z,2.7
2019-05-18T18:34:50.132Z,3.0
2019-05-18T18:36:50.289Z,2.3
2019-05-18T18:38:50.340Z,2.3
2019-05-18T18:40:50.319Z,2.9
2019-05-18T18:42:49.495Z,2.5
2019-05-18T18:44:49.560Z,2.8
2019-05-18T18:46:49.847Z,2.8
2019-05-18T18:48:49.916Z,3.9
2019-05-18T18:50:49.985Z,3.0
2019-05-18T18:52:50.242Z,3.0
2019-05-18T18:54:50.254Z,3.0
2019-05-18T18:56:49.517Z,2.6
2019-05-18T18:58:49.529Z,2.8
2019-05-18T19:00:49.509Z,2.8
2019-05-18T19:02:49.571Z,2.8
2019-05-18T19:04:49.905Z,3.1
2019-05-18T19:06:50.087Z,3.1
2019-05-18T19:08:50.128Z,3.1
2019-05-18T19:10:50.110Z,3.3
2019-05-18T19:12:50.136Z,3.2
2019-05-18T19:14:50.207Z,3.2
2019-05-18T19:16:50.307Z,3.8
2019-05-18T19:18:49.455Z,4.2
2019-05-18T19:20:49.559Z,4.1
2019-05-18T19:22:49.592Z,3.6
2019-05-18T19:24:49.668Z,3.7
2019-05-18T19:26:49.951Z,3.7
2019-05-18T19:28:50.133Z,3.9
2019-05-18T19:30:50.168Z,4.4
2019-05-18T19:32:50.338Z,6.0
2019-05-18T19:34:49.796Z,4.7
2019-05-18T19:36:49.938Z,4.7
2019-05-18T19:38:49.904Z,4.0
2019-05-18T19:40:49.943Z,4.1
2019-05-18T19:42:49.997Z,4.6
2019-05-18T19:44:50.044Z,4.2
2019-05-18T19:46:50.224Z,4.2
2019-05-18T19:48:50.342Z,4.1
2019-05-18T19:50:50.402Z,6.1
2019-05-18T19:52:49.593Z,4.0
2019-05-18T19:54:49.640Z,4.2
2019-05-18T19:56:50.083Z,4.2
2019-05-18T19:58:50.154Z,4.3
2019-05-18T20:00:50.204Z,5.0
2019-05-18T20:02:50.301Z,4.3
2019-05-18T20:05:06.186Z,4.3
2019-05-18T20:06:49.537Z,5.2
2019-05-18T20:08:49.558Z,5.0
2019-05-18T20:10:49.571Z,5.6
2019-05-18T20:12:49.633Z,5.3
2019-05-18T20:14:49.624Z,5.3
2019-05-18T20:16:49.888Z,5.1
2019-05-18T20:18:50.088Z,5.3
2019-05-18T20:20:50.133Z,5.9
2019-05-18T20:22:50.145Z,5.9
2019-05-18T20:24:50.166Z,5.9
2019-05-18T20:26:50.427Z,6.0
2019-05-18T20:28:49.537Z,6.3
2019-05-18T20:30:49.530Z,6.1
2019-05-18T20:32:49.680Z,6.1
2019-05-18T20:34:50.110Z,6.1
2019-05-18T20:36:49.442Z,6.3
2019-05-18T20:38:49.430Z,6.3
2019-05-18T20:40:49.461Z,6.4
2019-05-18T20:42:49.506Z,6.4
2019-05-18T20:44:49.528Z,6.5
2019-05-18T20:46:49.780Z,6.4
2019-05-18T20:48:49.717Z,6.4
2019-05-18T20:50:49.758Z,7.1
2019-05-18T20:52:49.808Z,7.1
2019-05-18T20:54:49.896Z,7.1
2019-05-18T20:56:49.967Z,8.0
2019-05-18T20:58:50.151Z,7.8
2019-05-18T21:00:50.143Z,7.8
2019-05-18T21:02:50.390Z,7.7
2019-05-18T21:04:49.801Z,7.9
2019-05-18T21:06:49.940Z,10.1
2019-05-18T21:08:49.961Z,8.5
2019-05-18T21:10:50.108Z,8.5
2019-05-18T21:12:50.088Z,8.0
2019-05-18T21:14:50.181Z,7.9
2019-05-18T21:16:49.473Z,7.5
2019-05-18T21:18:49.474Z,8.2
2019-05-18T21:20:49.570Z,8.2
2019-05-18T21:22:49.549Z,8.3
2019-05-18T21:24:49.608Z,11.1
2019-05-18T21:26:49.739Z,8.3
2019-05-18T21:28:56.347Z,8.3
2019-05-18T21:30:49.944Z,7.3
2019-05-18T21:32:50.056Z,6.9
2019-05-18T21:34:49.486Z,7.3
2019-05-18T21:36:49.659Z,7.0
2019-05-18T21:38:49.627Z,6.9
2019-05-18T21:40:49.645Z,6.9
2019-05-18T21:42:49.814Z,6.7
2019-05-18T21:44:49.960Z,6.3
2019-05-18T21:46:50.115Z,6.3
2019-05-18T21:48:50.129Z,6.5
2019-05-18T21:50:50.234Z,6.2
2019-05-18T21:52:50.215Z,6.1
2019-05-18T21:54:50.213Z,5.4
2019-05-18T21:56:49.558Z,5.6
2019-05-18T21:58:49.552Z,5.6
2019-05-18T22:00:49.545Z,5.4
2019-05-18T22:02:49.567Z,5.1
2019-05-18T22:04:50.031Z,4.8
2019-05-18T22:06:50.121Z,5.4
2019-05-18T22:08:50.135Z,5.4
2019-05-18T22:10:50.267Z,5.3
2019-05-18T22:12:50.260Z,4.9
2019-05-18T22:14:50.310Z,4.9
2019-05-18T22:16:49.604Z,5.1
2019-05-18T22:18:49.640Z,5.1
2019-05-18T22:20:49.681Z,5.3
2019-05-18T22:22:49.643Z,5.3
2019-05-18T22:24:49.663Z,5.4
2019-05-18T22:26:49.853Z,5.4
2019-05-18T22:28:49.922Z,6.3
2019-05-18T22:30:49.960Z,5.8
2019-05-18T22:32:49.931Z,5.4
2019-05-18T22:34:49.437Z,5.1
2019-05-18T22:36:49.638Z,5.2
2019-05-18T22:38:49.737Z,5.2
2019-05-18T22:40:49.821Z,5.7
2019-05-18T22:42:49.876Z,5.5
2019-05-18T22:44:49.858Z,5.6
2019-05-18T22:46:49.944Z,5.6
2019-05-18T22:48:50.038Z,5.7
2019-05-18T22:50:50.091Z,5.7
2019-05-18T22:52:50.129Z,6.0
2019-05-18T22:54:50.155Z,6.0
2019-05-18T22:56:50.387Z,5.9
2019-05-18T22:58:49.573Z,5.9
2019-05-18T23:00:49.605Z,5.8
2019-05-18T23:02:49.633Z,5.9
2019-05-18T23:04:50.111Z,5.9
2019-05-18T23:06:50.336Z,5.7
2019-05-18T23:08:50.316Z,6.0
2019-05-18T23:10:50.309Z,6.1
2019-05-18T23:12:50.349Z,6.6
2019-05-18T23:14:50.346Z,6.0
2019-05-18T23:16:49.538Z,6.0
2019-05-18T23:18:56.639Z,6.0
2019-05-18T23:20:50.340Z,6.2
2019-05-18T23:22:49.542Z,6.2
2019-05-18T23:24:49.539Z,6.2
2019-05-18T23:26:49.625Z,6.1
2019-05-18T23:28:49.723Z,6.1
2019-05-18T23:30:49.743Z,6.3
2019-05-18T23:32:50.547Z,6.3
2019-05-18T23:34:50.165Z,5.7
2019-05-18T23:36:50.386Z,5.7
2019-05-18T23:38:49.433Z,5.9
2019-05-18T23:40:49.522Z,6.2
2019-05-18T23:42:49.576Z,6.6
2019-05-18T23:44:49.625Z,6.6
2019-05-18T23:46:49.739Z,6.7
2019-05-18T23:48:49.754Z,6.3
2019-05-18T23:50:49.738Z,6.5
2019-05-18T23:52:49.792Z,6.3
2019-05-18T23:54:49.792Z,6.1
2019-05-18T23:56:49.895Z,6.1
2019-05-18T23:58:49.956Z,6.4
